KFCS/FCS METAR and TAF weather

Enter ICAO airport designator
Station Type Date Time Source
KFCS METAR 2019/08/24 18:58 UTC NOAA

KFCS 241858Z AUTO 09003KT 10SM FEW160 27/09 A3005 RMK AO2 SLP115 T02710085 $


Station Type Date Time Source
KFCS Decoded METAR 2019/08/24 18:58 UTC NOAA

Station name not available
Aug 24, 2019 - 02:58 PM EDT / 2019.08.24 1858 UTC
Wind: from the E (090 degrees) at 3 MPH (3 KT):0
Visibility: 10 mile(s):0
Sky conditions: mostly clear
Temperature: 80.8 F (27.1 C)
Dew Point: 47.3 F (8.5 C)
Relative Humidity: 30%
Pressure (altimeter): 30.05 in. Hg (1017 hPa)
ob: KFCS 241858Z AUTO 09003KT 10SM FEW160 27/09 A3005 RMK AO2 SLP115 T02710085
cycle: 19

Station Type Date Time Source
KFCS TAF 2019/08/24 13:06 UTC NOAA

TAF KFCS 241300Z 2413/2519 27009KT 9999 OVC008 QNH3008INS
TEMPO 2413/2417 OVC012
BECMG 2418/2419 29009KT 9999 SCT120 QNH3006INS
TEMPO 2421/2501 29015G25KT VCSH 520009
BECMG 2501/2502 VRB06KT 9999 SCT100 QNH3008INS
BECMG 2509/2510 30009KT 9999 SCT120 QNH3007INS
BECMG 2516/2517 30010G15KT 9999 SCT150 QNH3005INS TX30/2421Z TN10/2512Z

Example: see airport list